createdAt,value
2023-01-22T00:00:39.555Z,52.8
2023-01-22T00:01:41.015Z,52.5
2023-01-22T00:02:42.520Z,52.8
2023-01-22T00:03:47.291Z,52.8
2023-01-22T00:04:48.833Z,52.7
2023-01-22T00:05:50.229Z,52.5
2023-01-22T00:06:51.642Z,52.5
2023-01-22T00:07:53.086Z,52
2023-01-22T00:08:54.506Z,52
2023-01-22T00:09:55.910Z,52.1
2023-01-22T00:10:57.353Z,52.4
2023-01-22T00:11:58.758Z,52.4
2023-01-22T00:13:00.209Z,52
2023-01-22T00:14:01.847Z,52.3
2023-01-22T00:15:03.323Z,51.8
2023-01-22T00:16:04.916Z,52
2023-01-22T00:17:06.306Z,52
2023-01-22T00:18:07.708Z,52.1
2023-01-22T00:19:09.110Z,52.1
2023-01-22T00:20:10.592Z,51.9
2023-01-22T00:21:12.073Z,52.3
2023-01-22T00:22:13.459Z,52.1
2023-01-22T00:23:14.869Z,51.5
2023-01-22T00:24:16.292Z,51.8
2023-01-22T00:25:17.694Z,52.2
2023-01-22T00:26:19.087Z,52.2
2023-01-22T00:27:20.504Z,51.6
2023-01-22T00:28:21.936Z,51.5
2023-01-22T00:29:23.377Z,51.8
2023-01-22T00:30:24.775Z,51.4
2023-01-22T00:31:26.642Z,51.2
2023-01-22T00:32:28.155Z,51.3
2023-01-22T00:33:29.658Z,51.3
2023-01-22T00:34:31.067Z,51.4
2023-01-22T00:35:32.526Z,51
2023-01-22T00:36:33.947Z,50.7
2023-01-22T00:37:35.336Z,51
2023-01-22T00:38:36.753Z,50.9
2023-01-22T00:39:38.252Z,51
2023-01-22T00:40:39.646Z,51
2023-01-22T00:41:41.039Z,51
2023-01-22T00:42:42.432Z,50.9
2023-01-22T00:43:43.944Z,50.9
2023-01-22T00:44:45.485Z,50.8
2023-01-22T00:45:46.871Z,50.8
2023-01-22T00:46:48.408Z,50.9
2023-01-22T00:47:49.876Z,50.5
2023-01-22T00:48:51.389Z,50.5
2023-01-22T00:49:52.764Z,50.8
2023-01-22T00:50:54.274Z,50.3
2023-01-22T00:51:55.679Z,50.6
2023-01-22T00:52:57.093Z,50.5
2023-01-22T00:53:58.486Z,51.1
2023-01-22T00:54:59.899Z,50.4
2023-01-22T00:56:01.342Z,50.7
2023-01-22T00:57:02.908Z,50.4
2023-01-22T00:58:04.651Z,50.7
2023-01-22T00:59:06.030Z,50.7
2023-01-22T01:00:07.435Z,50.7
2023-01-22T01:01:09.054Z,50.5
2023-01-22T01:02:10.593Z,50.8
2023-01-22T01:03:11.999Z,50.5
2023-01-22T01:04:13.397Z,50.5
2023-01-22T01:05:14.798Z,50.3
2023-01-22T01:06:16.244Z,50.4
2023-01-22T01:07:17.687Z,50.1
2023-01-22T01:08:19.097Z,50.7
2023-01-22T01:09:20.525Z,50.7
2023-01-22T01:10:21.906Z,50.9
2023-01-22T01:11:23.293Z,50.9
2023-01-22T01:12:24.672Z,50.8
2023-01-22T01:13:26.370Z,50.4
2023-01-22T01:14:27.999Z,50.2
2023-01-22T01:15:29.649Z,50.3
2023-01-22T01:16:31.420Z,50.1
2023-01-22T01:17:32.932Z,50.3
2023-01-22T01:18:34.329Z,50.1
2023-01-22T01:19:35.742Z,50.3
2023-01-22T01:20:37.134Z,50.3
2023-01-22T01:21:38.531Z,50.2
2023-01-22T01:22:39.917Z,50
2023-01-22T01:23:41.303Z,49.6
2023-01-22T01:24:42.718Z,49.8
2023-01-22T01:25:44.141Z,49.6
2023-01-22T01:26:45.565Z,49.6
2023-01-22T01:27:46.946Z,49.6
2023-01-22T01:28:48.607Z,50.1
2023-01-22T01:29:49.996Z,50
2023-01-22T01:30:51.494Z,49.9
2023-01-22T01:31:53.052Z,50
2023-01-22T01:32:54.543Z,49.7
2023-01-22T01:33:55.958Z,49.6
2023-01-22T01:34:57.347Z,49.6
2023-01-22T01:35:58.751Z,49.7
2023-01-22T01:37:00.173Z,50.1
2023-01-22T01:38:01.570Z,49.5
2023-01-22T01:39:02.990Z,49.4
2023-01-22T01:40:04.382Z,49.4
2023-01-22T01:41:05.797Z,49.8
2023-01-22T01:42:07.188Z,49.9
2023-01-22T01:43:08.593Z,49.8
2023-01-22T01:44:10.242Z,50.1
2023-01-22T01:45:11.676Z,49.9
2023-01-22T01:46:13.140Z,49.6
2023-01-22T01:47:14.557Z,49.8
2023-01-22T01:48:15.968Z,49.7
2023-01-22T01:49:17.472Z,49.6
2023-01-22T01:50:19.635Z,49.4
2023-01-22T01:51:21.482Z,49.1
2023-01-22T01:52:22.989Z,49.3
2023-01-22T01:53:24.471Z,49.2
2023-01-22T01:54:25.880Z,49.4
2023-01-22T01:55:27.309Z,49.7
2023-01-22T01:56:28.711Z,49.4
2023-01-22T01:57:30.124Z,49.1
2023-01-22T01:58:31.521Z,49.1
2023-01-22T01:59:33.259Z,49.3
2023-01-22T02:00:34.749Z,48.9
2023-01-22T02:01:36.237Z,49.3
2023-01-22T02:02:37.694Z,49.3
2023-01-22T02:03:39.073Z,49.3
2023-01-22T02:04:40.447Z,49.1
2023-01-22T02:05:41.859Z,49.3
2023-01-22T02:06:43.283Z,49
2023-01-22T02:07:44.675Z,48.8
2023-01-22T02:08:46.078Z,49.1
2023-01-22T02:09:47.482Z,49
2023-01-22T02:10:48.875Z,48.8
2023-01-22T02:11:50.269Z,48.6
2023-01-22T02:12:51.687Z,48.6
2023-01-22T02:13:53.085Z,48.8
2023-01-22T02:14:54.775Z,48.9
2023-01-22T02:15:56.320Z,48.6
2023-01-22T02:16:57.743Z,48.7
2023-01-22T02:17:59.165Z,48.3
2023-01-22T02:19:00.579Z,48.3
2023-01-22T02:20:02.026Z,48.6
2023-01-22T02:21:03.441Z,48.6
2023-01-22T02:22:04.843Z,48.8
2023-01-22T02:23:06.261Z,48.8
2023-01-22T02:24:07.677Z,48.7
2023-01-22T02:25:09.096Z,49.2
2023-01-22T02:26:10.490Z,49.4
2023-01-22T02:27:11.884Z,49.3
2023-01-22T02:28:13.266Z,48.6
2023-01-22T02:29:14.695Z,48.5
2023-01-22T02:30:17.116Z,48.4
2023-01-22T02:31:18.938Z,48.6
2023-01-22T02:32:20.321Z,48.8
2023-01-22T02:33:21.723Z,48.5
2023-01-22T02:34:23.114Z,48.4
2023-01-22T02:35:24.502Z,48.4
2023-01-22T02:36:25.911Z,48.4
2023-01-22T02:37:27.303Z,48.1
2023-01-22T02:38:28.718Z,48.3
2023-01-22T02:39:30.220Z,48.1
2023-01-22T02:40:31.600Z,48
2023-01-22T02:41:33.021Z,48.1
2023-01-22T02:42:34.440Z,48.3
2023-01-22T02:43:35.852Z,48.4
2023-01-22T02:44:37.251Z,48.6
2023-01-22T02:45:38.941Z,48.3
2023-01-22T02:46:40.401Z,48.3
2023-01-22T02:47:41.806Z,48.1
2023-01-22T02:48:43.231Z,48.2
2023-01-22T02:49:44.643Z,48.3
2023-01-22T02:50:46.049Z,48.3
2023-01-22T02:51:47.448Z,48.1
2023-01-22T02:52:48.851Z,48.1
2023-01-22T02:53:50.294Z,48
2023-01-22T02:54:51.693Z,48
2023-01-22T02:55:53.109Z,47.9
2023-01-22T02:56:54.497Z,48
2023-01-22T02:57:56.276Z,48.1
2023-01-22T02:58:57.689Z,47.9
2023-01-22T02:59:59.074Z,48
2023-01-22T03:01:00.910Z,47.9
2023-01-22T03:02:02.540Z,47.9
2023-01-22T03:03:03.962Z,47.8
2023-01-22T03:04:05.362Z,47.9
2023-01-22T03:05:06.778Z,47.9
2023-01-22T03:06:08.180Z,47.8
2023-01-22T03:07:09.563Z,47.8
2023-01-22T03:08:10.958Z,47.7
2023-01-22T03:09:12.359Z,47.8
2023-01-22T03:10:13.757Z,47.9
2023-01-22T03:11:15.145Z,48.1
2023-01-22T03:12:16.544Z,47.9
2023-01-22T03:13:17.961Z,47.5
2023-01-22T03:14:19.345Z,47.5
2023-01-22T03:15:20.747Z,47.8
2023-01-22T03:16:22.657Z,47.8
2023-01-22T03:17:24.175Z,48
2023-01-22T03:18:25.556Z,47.8
2023-01-22T03:19:26.950Z,47.8
2023-01-22T03:20:28.376Z,48.1
2023-01-22T03:21:29.755Z,48.1
2023-01-22T03:22:31.154Z,48
2023-01-22T03:23:32.541Z,48.1
2023-01-22T03:24:33.946Z,47.9
2023-01-22T03:25:35.338Z,47.5
2023-01-22T03:26:36.743Z,47.2
2023-01-22T03:27:38.202Z,47.3
2023-01-22T03:28:39.630Z,47.2
2023-01-22T03:29:41.041Z,46.7
2023-01-22T03:30:42.444Z,47
2023-01-22T03:31:44.354Z,47.3
2023-01-22T03:32:45.881Z,47.2
2023-01-22T03:33:47.304Z,47.2
2023-01-22T03:34:48.735Z,46.9
2023-01-22T03:35:50.130Z,47.2
2023-01-22T03:36:51.523Z,47
2023-01-22T03:37:52.897Z,47.3
2023-01-22T03:38:54.280Z,47.2
2023-01-22T03:39:55.681Z,47
2023-01-22T03:40:57.065Z,47.3
2023-01-22T03:41:58.491Z,47.2
2023-01-22T03:42:59.900Z,46.9
2023-01-22T03:44:01.274Z,47
2023-01-22T03:45:02.674Z,47.1
2023-01-22T03:46:04.352Z,46.8
2023-01-22T03:47:06.166Z,47
2023-01-22T03:48:07.565Z,47
2023-01-22T03:49:08.958Z,46.8
2023-01-22T03:50:10.362Z,46.6
2023-01-22T03:51:12.003Z,46.6
2023-01-22T03:52:13.419Z,46.7
2023-01-22T03:53:14.811Z,46.6
2023-01-22T03:54:16.214Z,46.8
2023-01-22T03:55:17.640Z,46.5
2023-01-22T03:56:19.040Z,46.5
2023-01-22T03:57:20.426Z,46.5
2023-01-22T03:58:21.817Z,46.4
2023-01-22T03:59:23.229Z,46.6
2023-01-22T04:00:24.643Z,46.4
2023-01-22T04:01:26.185Z,46.6
2023-01-22T04:02:28.119Z,46.5
2023-01-22T04:03:29.591Z,46.4
2023-01-22T04:04:31.041Z,46.5
2023-01-22T04:05:32.478Z,46.6
2023-01-22T04:06:33.871Z,46.7
2023-01-22T04:07:35.263Z,47
2023-01-22T04:08:36.654Z,46.8
2023-01-22T04:09:38.040Z,46.5
2023-01-22T04:10:39.435Z,46.8
2023-01-22T04:11:40.835Z,46.7
2023-01-22T04:12:42.260Z,46.8
2023-01-22T04:13:43.683Z,46.7
2023-01-22T04:14:45.085Z,46.7
2023-01-22T04:15:46.488Z,46.8
2023-01-22T04:16:47.961Z,46.7
2023-01-22T04:17:49.685Z,46.5
2023-01-22T04:18:51.116Z,46.4
2023-01-22T04:19:52.521Z,46.5
2023-01-22T04:20:53.975Z,46.2
2023-01-22T04:21:55.406Z,46.2
2023-01-22T04:22:56.771Z,46.3
2023-01-22T04:23:58.172Z,46.1
2023-01-22T04:24:59.556Z,46.3
2023-01-22T04:26:00.948Z,46.1
2023-01-22T04:27:02.383Z,46.2
2023-01-22T04:28:03.785Z,46.4
2023-01-22T04:29:05.171Z,46.2
2023-01-22T04:30:06.615Z,46.1
2023-01-22T04:31:08.233Z,46
2023-01-22T04:32:09.678Z,46.2
2023-01-22T04:33:11.329Z,46.4
2023-01-22T04:34:12.745Z,46.4
2023-01-22T04:35:14.136Z,46.4
2023-01-22T04:36:15.555Z,46.2
2023-01-22T04:37:16.952Z,46.1
2023-01-22T04:38:18.377Z,46.1
2023-01-22T04:39:19.813Z,46.4
2023-01-22T04:40:21.220Z,46.3
2023-01-22T04:41:22.616Z,46.1
2023-01-22T04:42:24.011Z,46.4
2023-01-22T04:43:25.430Z,46.6
2023-01-22T04:44:26.815Z,46.5
2023-01-22T04:45:28.207Z,46.3
2023-01-22T04:46:29.746Z,46.4
2023-01-22T04:47:31.151Z,46.5
2023-01-22T04:48:32.827Z,46.6
2023-01-22T04:49:34.349Z,46.7
2023-01-22T04:50:35.750Z,46.6
2023-01-22T04:51:37.147Z,46.6
2023-01-22T04:52:38.548Z,46.3
2023-01-22T04:53:39.933Z,46.3
2023-01-22T04:54:41.346Z,46.3
2023-01-22T04:55:42.830Z,46.6
2023-01-22T04:56:44.411Z,46.2
2023-01-22T04:57:45.964Z,46.1
2023-01-22T04:58:47.385Z,46.4
2023-01-22T04:59:48.800Z,46.5
2023-01-22T05:00:50.183Z,46.5
2023-01-22T05:01:51.590Z,46.4
2023-01-22T05:02:53.004Z,46.3
2023-01-22T05:03:54.718Z,46.4
2023-01-22T05:04:56.167Z,46.5
2023-01-22T05:05:57.703Z,46.6
2023-01-22T05:06:59.336Z,46.4
2023-01-22T05:08:00.725Z,46.4
2023-01-22T05:09:02.128Z,46.2
2023-01-22T05:10:03.522Z,46.5
2023-01-22T05:11:04.933Z,46.2
2023-01-22T05:12:06.327Z,46.4
2023-01-22T05:13:07.749Z,46.5
2023-01-22T05:14:10.852Z,46.4
2023-01-22T05:15:25.102Z,46.5
2023-01-22T05:16:26.734Z,46.2
2023-01-22T05:17:28.125Z,45.8
2023-01-22T05:18:29.531Z,45.9
2023-01-22T05:19:31.183Z,45.9
2023-01-22T05:20:32.599Z,45.8
2023-01-22T05:21:34.009Z,45.8
2023-01-22T05:22:35.411Z,45.5
2023-01-22T05:23:36.819Z,45.5
2023-01-22T05:24:38.217Z,45.7
2023-01-22T05:25:39.620Z,45.6
2023-01-22T05:26:41.024Z,45.7
2023-01-22T05:27:42.450Z,45.4
2023-01-22T05:28:43.862Z,45.5
2023-01-22T05:29:45.242Z,45.8
2023-01-22T05:30:47.036Z,45.6
2023-01-22T05:31:48.857Z,45.8
2023-01-22T05:32:50.391Z,45.7
2023-01-22T05:33:51.807Z,45.5
2023-01-22T05:34:53.528Z,45.7
2023-01-22T05:35:54.924Z,46
2023-01-22T05:36:56.313Z,45.6
2023-01-22T05:37:57.723Z,45.8
2023-01-22T05:38:59.091Z,45.9
2023-01-22T05:40:00.499Z,46.1
2023-01-22T05:41:01.898Z,45.8
2023-01-22T05:42:03.311Z,46.2
2023-01-22T05:43:04.737Z,46
2023-01-22T05:44:06.127Z,46
2023-01-22T05:45:07.519Z,46
2023-01-22T05:46:09.029Z,46
2023-01-22T05:47:10.435Z,45.9
2023-01-22T05:48:11.827Z,45.7
2023-01-22T05:49:13.228Z,45.9
2023-01-22T05:50:14.928Z,46.3
2023-01-22T05:51:16.564Z,46.3
2023-01-22T05:52:18.083Z,46.4
2023-01-22T05:53:19.504Z,46.4
2023-01-22T05:54:20.919Z,46.6
2023-01-22T05:55:22.354Z,47.7
2023-01-22T05:56:23.744Z,48.6
2023-01-22T05:57:25.137Z,49.6
2023-01-22T05:58:26.528Z,48.9
2023-01-22T05:59:27.965Z,48.7
2023-01-22T06:00:29.410Z,49.3
2023-01-22T06:01:30.806Z,50.1
2023-01-22T06:02:32.290Z,50.3
2023-01-22T06:03:33.955Z,49.7
2023-01-22T06:04:35.370Z,49.5
2023-01-22T06:05:37.138Z,49.5
2023-01-22T06:06:38.587Z,49.6
2023-01-22T06:07:39.979Z,49.7
2023-01-22T06:08:41.513Z,49.5
2023-01-22T06:09:42.942Z,49.4
2023-01-22T06:10:44.344Z,49.2
2023-01-22T06:11:45.739Z,49.3
2023-01-22T06:12:47.153Z,49
2023-01-22T06:13:48.536Z,49.4
2023-01-22T06:14:49.918Z,49.5
2023-01-22T06:15:51.462Z,48.6
2023-01-22T06:16:52.881Z,48.7
2023-01-22T06:17:54.305Z,49.3
2023-01-22T06:18:55.702Z,49.2
2023-01-22T06:19:57.094Z,49.5
2023-01-22T06:20:58.960Z,49.6
2023-01-22T06:22:00.408Z,49.5
2023-01-22T06:23:01.912Z,49.2
2023-01-22T06:24:03.305Z,49.1
2023-01-22T06:25:04.729Z,48.9
2023-01-22T06:26:06.142Z,48.9
2023-01-22T06:27:07.564Z,48.9
2023-01-22T06:28:08.947Z,49
2023-01-22T06:29:10.321Z,48.7
2023-01-22T06:30:11.744Z,49
2023-01-22T06:31:13.439Z,49.1
2023-01-22T06:32:15.039Z,49.2
2023-01-22T06:33:16.454Z,49
2023-01-22T06:34:17.855Z,49.2
2023-01-22T06:35:19.241Z,49
2023-01-22T06:36:20.972Z,48.9
2023-01-22T06:37:22.376Z,48.9
2023-01-22T06:38:23.781Z,48.6
2023-01-22T06:39:25.217Z,48.3
2023-01-22T06:40:26.624Z,48.5
2023-01-22T06:41:28.054Z,48.4
2023-01-22T06:42:29.479Z,48.4
2023-01-22T06:43:30.852Z,48.4
2023-01-22T06:44:32.237Z,48.7
2023-01-22T06:45:33.683Z,48.8
2023-01-22T06:46:35.217Z,48.5
2023-01-22T06:47:36.655Z,48.9
2023-01-22T06:48:38.100Z,48.8
2023-01-22T06:49:39.562Z,48.2
2023-01-22T06:50:40.948Z,47.8
2023-01-22T06:51:42.589Z,48.3
2023-01-22T06:52:44.036Z,48.3
2023-01-22T06:53:45.414Z,48.2
2023-01-22T06:54:46.807Z,48.3
2023-01-22T06:55:48.252Z,48.3
2023-01-22T06:56:49.665Z,48.2
2023-01-22T06:57:51.071Z,48.6
2023-01-22T06:58:52.462Z,47.6
2023-01-22T06:59:53.906Z,46.4
2023-01-22T07:00:55.296Z,46.2
2023-01-22T07:01:56.973Z,44.2
2023-01-22T07:02:58.538Z,44.1
2023-01-22T07:04:00.177Z,42.9
2023-01-22T07:05:01.717Z,42.7
2023-01-22T07:06:03.113Z,42.4
2023-01-22T07:07:04.805Z,42.5
2023-01-22T07:08:06.249Z,42.3
2023-01-22T07:09:07.655Z,41.9
2023-01-22T07:10:09.050Z,41.9
2023-01-22T07:11:10.460Z,41.6
2023-01-22T07:12:11.881Z,41.5
2023-01-22T07:13:13.243Z,41
2023-01-22T07:14:14.646Z,40.9
2023-01-22T07:15:16.050Z,40.6
2023-01-22T07:16:17.726Z,40.5
2023-01-22T07:17:19.266Z,40.1
2023-01-22T07:18:20.694Z,40.3
2023-01-22T07:19:22.091Z,40.1
2023-01-22T07:20:23.483Z,39.7
2023-01-22T07:21:24.907Z,39.9
2023-01-22T07:22:26.624Z,39.8
2023-01-22T07:23:28.036Z,39.3
2023-01-22T07:24:29.457Z,39.4
2023-01-22T07:25:30.867Z,39.1
2023-01-22T07:26:32.257Z,39.2
2023-01-22T07:27:33.656Z,39.1
2023-01-22T07:28:35.068Z,39.1
2023-01-22T07:29:36.466Z,39
2023-01-22T07:30:37.889Z,38.9
2023-01-22T07:31:39.700Z,39
2023-01-22T07:32:41.103Z,39.3
2023-01-22T07:33:42.670Z,39
2023-01-22T07:34:44.076Z,38.8
2023-01-22T07:35:45.550Z,38.8
2023-01-22T07:36:46.999Z,38.8
2023-01-22T07:37:48.751Z,38.9
2023-01-22T07:38:50.160Z,38.9
2023-01-22T07:39:51.542Z,38.8
2023-01-22T07:40:52.934Z,39
2023-01-22T07:41:54.327Z,38.8
2023-01-22T07:42:55.764Z,38.9
2023-01-22T07:43:57.178Z,38.9
2023-01-22T07:44:58.577Z,38.9
2023-01-22T07:45:59.981Z,39
2023-01-22T07:47:01.393Z,39
2023-01-22T07:48:02.786Z,38.9
2023-01-22T07:49:04.172Z,38.9
2023-01-22T07:50:05.562Z,38.9
2023-01-22T07:51:07.078Z,38.8
2023-01-22T07:52:08.579Z,38.7
2023-01-22T07:53:10.257Z,38.9
2023-01-22T07:54:11.676Z,39
2023-01-22T07:55:13.101Z,38.9
2023-01-22T07:56:14.493Z,38.9
2023-01-22T07:57:15.881Z,38.7
2023-01-22T07:58:17.256Z,39
2023-01-22T07:59:18.662Z,38.6
2023-01-22T08:00:20.763Z,39
2023-01-22T08:01:22.369Z,39
2023-01-22T08:02:23.979Z,38.8
2023-01-22T08:03:25.562Z,38.8
2023-01-22T08:04:26.973Z,38.8
2023-01-22T08:05:28.361Z,38.8
2023-01-22T08:06:29.764Z,38.8
2023-01-22T08:07:31.184Z,38.8
2023-01-22T08:08:32.881Z,38.9
2023-01-22T08:09:34.300Z,39
2023-01-22T08:10:35.744Z,39
2023-01-22T08:11:37.284Z,38.9
2023-01-22T08:12:38.761Z,39
2023-01-22T08:13:40.184Z,39.1
2023-01-22T08:14:41.565Z,39.1
2023-01-22T08:15:42.989Z,38.9
2023-01-22T08:16:44.567Z,38.9
2023-01-22T08:17:46.094Z,39
2023-01-22T08:18:47.500Z,38.9
2023-01-22T08:19:48.929Z,39
2023-01-22T08:20:50.332Z,39.1
2023-01-22T08:21:51.738Z,39.1
2023-01-22T08:22:53.158Z,39
2023-01-22T08:24:00.656Z,38.9
2023-01-22T08:25:02.264Z,38.9
2023-01-22T08:26:03.655Z,39
2023-01-22T08:27:05.049Z,39
2023-01-22T08:28:06.516Z,39.1
2023-01-22T08:29:08.235Z,39
2023-01-22T08:30:09.646Z,39
2023-01-22T08:31:28.169Z,39.3
2023-01-22T08:32:30.035Z,39.2
2023-01-22T08:33:31.520Z,39.1
2023-01-22T08:34:32.937Z,39.2
2023-01-22T08:35:34.339Z,39.5
2023-01-22T08:36:35.749Z,39.5
2023-01-22T08:37:37.157Z,39.6
2023-01-22T08:38:38.554Z,39.6
2023-01-22T08:39:45.950Z,39.8
2023-01-22T08:40:47.739Z,39.9
2023-01-22T08:41:49.163Z,39.8
2023-01-22T08:42:50.566Z,39.8
2023-01-22T08:43:51.981Z,39.9
2023-01-22T08:44:53.380Z,39.9
2023-01-22T08:45:55.008Z,39.8
2023-01-22T08:46:56.461Z,39.9
2023-01-22T08:47:57.839Z,39.9
2023-01-22T08:48:59.271Z,39.8
2023-01-22T08:50:00.656Z,40
2023-01-22T08:51:02.279Z,39.9
2023-01-22T08:52:03.730Z,39.9
2023-01-22T08:53:05.136Z,40
2023-01-22T08:54:06.516Z,40
2023-01-22T08:55:07.919Z,40
2023-01-22T08:56:09.571Z,40
2023-01-22T08:57:11.008Z,40
2023-01-22T08:58:12.409Z,40
2023-01-22T08:59:13.792Z,40.2
2023-01-22T09:00:15.416Z,40.2
2023-01-22T09:01:17.097Z,40.2
2023-01-22T09:02:18.755Z,40.1
2023-01-22T09:03:20.375Z,40.2
2023-01-22T09:04:21.770Z,40.3
2023-01-22T09:05:23.179Z,40.1
2023-01-22T09:06:24.574Z,40.2
2023-01-22T09:07:25.940Z,40.2
2023-01-22T09:08:27.328Z,40.2
2023-01-22T09:09:28.712Z,40.3
2023-01-22T09:10:30.121Z,40.4
2023-01-22T09:11:31.787Z,40.3
2023-01-22T09:12:33.211Z,40.3
2023-01-22T09:13:34.636Z,40.4
2023-01-22T09:14:36.016Z,40.3
2023-01-22T09:15:37.400Z,40.3
2023-01-22T09:16:38.990Z,40.3
2023-01-22T09:17:40.397Z,40.4
2023-01-22T09:18:41.828Z,40.6
2023-01-22T09:19:43.476Z,40.4
2023-01-22T09:20:44.963Z,40.6
2023-01-22T09:21:46.375Z,40.5
2023-01-22T09:22:47.772Z,40.5
2023-01-22T09:23:49.164Z,40.5
2023-01-22T09:24:50.566Z,40.7
2023-01-22T09:25:51.961Z,40.6
2023-01-22T09:26:53.713Z,40.7
2023-01-22T09:27:55.118Z,40.7
2023-01-22T09:28:56.509Z,40.7
2023-01-22T09:29:57.903Z,40.8
2023-01-22T09:30:59.504Z,40.7
2023-01-22T09:32:01.181Z,40.5
2023-01-22T09:33:02.745Z,40.6
2023-01-22T09:34:04.162Z,40.6
2023-01-22T09:35:05.602Z,40.8
2023-01-22T09:36:06.979Z,40.6
2023-01-22T09:37:08.372Z,40.8
2023-01-22T09:38:09.766Z,40.8
2023-01-22T09:39:11.171Z,40.5
2023-01-22T09:40:12.583Z,40.6
2023-01-22T09:41:13.995Z,40.7
2023-01-22T09:42:21.498Z,40.6
2023-01-22T09:43:23.090Z,40.6
2023-01-22T09:44:24.541Z,40.5
2023-01-22T09:45:25.987Z,40.5
2023-01-22T09:46:27.389Z,40.4
2023-01-22T09:47:28.817Z,40.3
2023-01-22T09:48:30.412Z,40.3
2023-01-22T09:49:31.958Z,40.4
2023-01-22T09:50:33.370Z,40.4
2023-01-22T09:51:34.768Z,40.3
2023-01-22T09:52:36.165Z,40.4
2023-01-22T09:53:37.569Z,40.3
2023-01-22T09:54:38.981Z,40.3
2023-01-22T09:55:40.375Z,40.2
2023-01-22T09:56:41.772Z,40.5
2023-01-22T09:57:43.343Z,40.4
2023-01-22T09:58:44.892Z,40.5
2023-01-22T09:59:46.357Z,40.5
2023-01-22T10:00:48.027Z,40.7
2023-01-22T10:01:49.474Z,40.7
2023-01-22T10:02:50.941Z,40.5
2023-01-22T10:03:52.358Z,40.5
2023-01-22T10:04:53.746Z,40.6
2023-01-22T10:05:55.148Z,40.6
2023-01-22T10:06:56.560Z,40.7
2023-01-22T10:07:57.962Z,40.9
2023-01-22T10:08:59.414Z,40.8
2023-01-22T10:10:00.797Z,40.9
2023-01-22T10:11:02.191Z,40.8
2023-01-22T10:12:03.583Z,40.9
2023-01-22T10:13:05.078Z,41
2023-01-22T10:14:06.589Z,41
2023-01-22T10:15:08.054Z,40.9
2023-01-22T10:16:09.467Z,40.6
2023-01-22T10:17:10.881Z,40.7
2023-01-22T10:18:12.277Z,40.7
2023-01-22T10:19:13.665Z,40.9
2023-01-22T10:20:15.069Z,40.8
2023-01-22T10:21:16.491Z,40.9
2023-01-22T10:22:17.873Z,40.7
2023-01-22T10:23:19.276Z,40.7
2023-01-22T10:24:20.697Z,40.7
2023-01-22T10:25:22.092Z,40.7
2023-01-22T10:26:23.480Z,40.9
2023-01-22T10:27:24.915Z,40.7
2023-01-22T10:28:26.472Z,40.9
2023-01-22T10:29:28.010Z,40.9
2023-01-22T10:30:29.472Z,40.9
2023-01-22T10:31:31.304Z,40.8
2023-01-22T10:32:32.876Z,40.9
2023-01-22T10:33:34.267Z,41.1
2023-01-22T10:34:35.653Z,41
2023-01-22T10:35:37.035Z,41
2023-01-22T10:36:38.452Z,41.1
2023-01-22T10:37:39.850Z,41.1
2023-01-22T10:38:41.253Z,41.2
2023-01-22T10:39:42.678Z,41.2
2023-01-22T10:40:44.161Z,41.1
2023-01-22T10:41:45.604Z,41.3
2023-01-22T10:42:47.042Z,41.3
2023-01-22T10:43:48.580Z,41.2
2023-01-22T10:44:50.087Z,41.2
2023-01-22T10:45:51.799Z,41.2
2023-01-22T10:46:53.210Z,41.2
2023-01-22T10:47:54.599Z,41.1
2023-01-22T10:48:55.993Z,41.2
2023-01-22T10:49:57.367Z,41.4
2023-01-22T10:50:59.109Z,41.3
2023-01-22T10:52:00.671Z,41.3
2023-01-22T10:53:02.077Z,41.4
2023-01-22T10:54:03.501Z,41.4
2023-01-22T10:55:04.932Z,41.4
2023-01-22T10:56:06.701Z,41.3
2023-01-22T10:57:08.757Z,41.3
2023-01-22T10:58:10.182Z,41
2023-01-22T10:59:11.836Z,40.8
2023-01-22T11:00:13.373Z,41.2
2023-01-22T11:01:14.869Z,41.1
2023-01-22T11:02:16.406Z,40.9
2023-01-22T11:03:17.815Z,41.1
2023-01-22T11:04:19.228Z,41
2023-01-22T11:05:20.634Z,41
2023-01-22T11:06:22.062Z,40.9
2023-01-22T11:07:23.455Z,41.1
2023-01-22T11:08:24.889Z,41
2023-01-22T11:09:26.300Z,41.1
2023-01-22T11:10:27.730Z,41
2023-01-22T11:11:29.148Z,41
2023-01-22T11:12:30.544Z,41
2023-01-22T11:13:32.149Z,40.9
2023-01-22T11:14:33.755Z,41
2023-01-22T11:15:35.405Z,41
2023-01-22T11:16:36.957Z,41
2023-01-22T11:17:38.386Z,41
2023-01-22T11:18:39.802Z,41
2023-01-22T11:19:41.337Z,41
2023-01-22T11:20:42.725Z,41.1
2023-01-22T11:21:44.149Z,41
2023-01-22T11:22:45.546Z,41.1
2023-01-22T11:23:46.965Z,41.4
2023-01-22T11:24:48.549Z,41.3
2023-01-22T11:25:50.004Z,41.3
2023-01-22T11:26:51.423Z,41
2023-01-22T11:27:52.826Z,40.9
2023-01-22T11:28:54.231Z,40.5
2023-01-22T11:29:55.779Z,40.7
2023-01-22T11:30:57.636Z,40.8
2023-01-22T11:31:59.179Z,40.9
2023-01-22T11:33:00.613Z,41
2023-01-22T11:34:02.145Z,40.8
2023-01-22T11:35:03.549Z,41.1
2023-01-22T11:36:04.951Z,41.1
2023-01-22T11:37:06.343Z,40.9
2023-01-22T11:38:07.786Z,40.9
2023-01-22T11:39:09.205Z,41.1
2023-01-22T11:40:10.607Z,41.3
2023-01-22T11:41:12.019Z,41.2
2023-01-22T11:42:13.421Z,41.1
2023-01-22T11:43:14.862Z,41.2
2023-01-22T11:44:16.257Z,41.1
2023-01-22T11:45:17.783Z,41.1
2023-01-22T11:46:19.360Z,41.1
2023-01-22T11:47:20.873Z,41.2
2023-01-22T11:48:22.257Z,41.4
2023-01-22T11:49:23.663Z,41.2
2023-01-22T11:50:25.063Z,41.2
2023-01-22T11:51:26.646Z,41.3
2023-01-22T11:52:28.043Z,41.4
2023-01-22T11:53:29.435Z,41.4
2023-01-22T11:54:30.848Z,41.1
2023-01-22T11:55:32.264Z,41.2
2023-01-22T11:56:33.673Z,41.1
2023-01-22T11:57:35.096Z,41.4
2023-01-22T11:58:36.477Z,41.6
2023-01-22T11:59:37.881Z,41.2
2023-01-22T12:00:39.493Z,41.7
2023-01-22T12:01:41.062Z,41.8
2023-01-22T12:02:42.546Z,41.5
2023-01-22T12:03:44.159Z,41.4
2023-01-22T12:04:45.616Z,41.2
2023-01-22T12:05:47.053Z,41
2023-01-22T12:06:48.481Z,41
2023-01-22T12:07:49.885Z,41
2023-01-22T12:08:51.310Z,41
2023-01-22T12:09:52.743Z,41
2023-01-22T12:10:55.244Z,40.8
2023-01-22T12:11:56.632Z,40.6
2023-01-22T12:12:58.050Z,40.9
2023-01-22T12:13:59.469Z,40.9
2023-01-22T12:15:00.894Z,40.9
2023-01-22T12:16:05.715Z,40.8
2023-01-22T12:17:07.265Z,40.8
2023-01-22T12:18:08.693Z,40.9
2023-01-22T12:19:10.110Z,41
2023-01-22T12:20:11.676Z,40.9
2023-01-22T12:21:13.097Z,40.8
2023-01-22T12:22:14.478Z,40.6
2023-01-22T12:23:15.880Z,40.7
2023-01-22T12:24:17.282Z,40.8
2023-01-22T12:25:18.715Z,40.4
2023-01-22T12:26:20.132Z,40.3
2023-01-22T12:27:21.527Z,40.2
2023-01-22T12:28:22.937Z,40.4
2023-01-22T12:29:24.369Z,40.4
2023-01-22T12:30:25.765Z,40.4
2023-01-22T12:31:27.522Z,41
2023-01-22T12:32:29.175Z,40.5
2023-01-22T12:33:30.599Z,40.5
2023-01-22T12:34:32.011Z,40.5
2023-01-22T12:35:33.406Z,40.2
2023-01-22T12:36:34.815Z,40.4
2023-01-22T12:37:36.218Z,40.7
2023-01-22T12:38:37.605Z,40.9
2023-01-22T12:39:39.017Z,40.7
2023-01-22T12:40:40.430Z,40.9
2023-01-22T12:41:41.866Z,40.7
2023-01-22T12:42:43.273Z,41
2023-01-22T12:43:44.689Z,40.8
2023-01-22T12:44:46.092Z,41.2
2023-01-22T12:45:47.511Z,41.1
2023-01-22T12:46:49.212Z,40.9
2023-01-22T12:47:50.797Z,40.6
2023-01-22T12:48:52.203Z,40.6
2023-01-22T12:49:53.609Z,40.9
2023-01-22T12:50:55.123Z,40.7
2023-01-22T12:51:56.644Z,40.5
2023-01-22T12:52:58.027Z,40.7
2023-01-22T12:53:59.409Z,41
2023-01-22T12:55:00.787Z,40.8
2023-01-22T12:56:02.208Z,41
2023-01-22T12:57:03.608Z,41
2023-01-22T12:58:05.007Z,41
2023-01-22T12:59:06.406Z,41.4
2023-01-22T13:00:07.801Z,41.3
2023-01-22T13:01:09.474Z,41.2
2023-01-22T13:02:11.206Z,41
2023-01-22T13:03:30.799Z,41.2
2023-01-22T13:04:32.451Z,41.2
2023-01-22T13:05:34.024Z,40.7
2023-01-22T13:06:35.428Z,40.7
2023-01-22T13:07:36.883Z,40.8
2023-01-22T13:08:38.521Z,41.2
2023-01-22T13:09:39.989Z,41.4
2023-01-22T13:10:41.398Z,41.4
2023-01-22T13:11:42.807Z,41.5
2023-01-22T13:12:44.208Z,41.2
2023-01-22T13:13:45.591Z,41.2
2023-01-22T13:14:46.993Z,41.7
2023-01-22T13:15:48.475Z,41.3
2023-01-22T13:16:49.851Z,41.1
2023-01-22T13:18:07.600Z,41.2
2023-01-22T13:19:09.454Z,41.1
2023-01-22T13:20:10.889Z,41
2023-01-22T13:21:12.284Z,40.9
2023-01-22T13:22:13.697Z,41
2023-01-22T13:23:15.100Z,41
2023-01-22T13:24:16.502Z,41
2023-01-22T13:25:18.697Z,41.2
2023-01-22T13:26:20.329Z,41.5
2023-01-22T13:27:21.729Z,41.5
2023-01-22T13:28:23.135Z,41.3
2023-01-22T13:29:27.448Z,41.5
2023-01-22T13:30:29.014Z,41.7
2023-01-22T13:31:30.569Z,41.7
2023-01-22T13:32:32.056Z,41.6
2023-01-22T13:33:33.588Z,42
2023-01-22T13:34:35.108Z,42
2023-01-22T13:35:36.588Z,41.6
2023-01-22T13:36:37.996Z,41.4
2023-01-22T13:37:39.530Z,40.9
2023-01-22T13:38:40.941Z,41
2023-01-22T13:39:42.391Z,41.1
2023-01-22T13:40:51.832Z,41.3
2023-01-22T13:41:53.357Z,41.4
2023-01-22T13:42:54.858Z,41.5
2023-01-22T13:43:56.257Z,41.5
2023-01-22T13:44:57.678Z,41.4
2023-01-22T13:45:59.084Z,41.3
2023-01-22T13:47:00.495Z,41.5